sensor_id;sensor_type;location;lat;lon;timestamp;pressure;altitude;pressure_sealevel;temperature;humidity
70053;BME280;57398;52.032;4.376;2022-11-02T14:33:03;101999.41;;;12.91;nan
70053;BME280;57398;52.032;4.376;2022-11-02T14:35:38;101996.59;;;12.92;nan
70053;BME280;57398;52.032;4.376;2022-11-02T14:44:06;101990.19;;;12.75;nan
70053;BME280;57398;52.032;4.376;2022-11-02T14:46:46;101991.84;;;12.69;nan
70053;BME280;57398;52.032;4.376;2022-11-02T14:49:20;101987.84;;;12.60;nan
70053;BME280;57398;52.032;4.376;2022-11-02T14:51:59;101990.84;;;12.57;nan
70053;BME280;57398;52.032;4.376;2022-11-02T14:54:31;101978.22;;;12.54;nan
70053;BME280;57398;52.032;4.376;2022-11-02T14:57:02;101975.00;;;12.45;nan
70053;BME280;57398;52.032;4.376;2022-11-02T14:59:35;101982.03;;;12.45;nan
70053;BME280;57398;52.032;4.376;2022-11-02T15:02:06;101978.03;;;12.42;nan
70053;BME280;57398;52.032;4.376;2022-11-02T15:04:45;101971.81;;;12.36;nan
70053;BME280;57398;52.032;4.376;2022-11-02T15:07:19;101972.84;;;12.29;nan
70053;BME280;57398;52.032;4.376;2022-11-02T15:09:56;101970.03;;;12.30;nan
70053;BME280;57398;52.032;4.376;2022-11-02T15:12:35;101967.22;;;12.25;nan
70053;BME280;57398;52.032;4.376;2022-11-02T15:15:30;101965.00;;;12.22;nan
70053;BME280;57398;52.032;4.376;2022-11-02T15:18:31;101955.19;;;12.24;nan
70053;BME280;57398;52.032;4.376;2022-11-02T15:21:26;101954.41;;;12.24;nan
70053;BME280;57398;52.032;4.376;2022-11-02T15:23:59;101952.41;;;12.19;nan
70053;BME280;57398;52.032;4.376;2022-11-02T15:26:32;101956.41;;;12.08;nan
70053;BME280;57398;52.032;4.376;2022-11-02T15:29:14;101954.59;;;12.09;nan
70053;BME280;57398;52.032;4.376;2022-11-02T15:31:52;101956.22;;;12.10;nan
70053;BME280;57398;52.032;4.376;2022-11-02T15:34:23;101944.41;;;12.07;nan
70053;BME280;57398;52.032;4.376;2022-11-02T15:36:54;101939.78;;;12.03;nan
70053;BME280;57398;52.032;4.376;2022-11-02T15:39:23;101941.97;;;11.99;nan
70053;BME280;57398;52.032;4.376;2022-11-02T15:41:55;101941.97;;;11.99;nan
70053;BME280;57398;52.032;4.376;2022-11-02T15:44:53;101939.38;;;11.99;nan
70053;BME280;57398;52.032;4.376;2022-11-02T15:47:43;101920.13;;;11.87;nan
70053;BME280;57398;52.032;4.376;2022-11-02T15:50:27;101923.75;;;11.92;nan
70053;BME280;57398;52.032;4.376;2022-11-02T15:53:13;101930.97;;;11.90;nan
70053;BME280;57398;52.032;4.376;2022-11-02T15:55:58;101933.97;;;11.87;nan
70053;BME280;57398;52.032;4.376;2022-11-02T15:58:34;101918.50;;;11.79;nan
70053;BME280;57398;52.032;4.376;2022-11-02T16:01:16;101927.53;;;11.83;nan
70053;BME280;57398;52.032;4.376;2022-11-02T16:03:48;101909.91;;;11.85;nan
70053;BME280;57398;52.032;4.376;2022-11-02T16:06:24;101911.50;;;11.86;nan
70053;BME280;57398;52.032;4.376;2022-11-02T16:08:54;101904.31;;;11.88;nan
70053;BME280;57398;52.032;4.376;2022-11-02T16:11:23;101912.91;;;11.82;nan
70053;BME280;57398;52.032;4.376;2022-11-02T16:13:51;101908.09;;;11.79;nan
70053;BME280;57398;52.032;4.376;2022-11-02T16:16:45;101899.09;;;11.75;nan
70053;BME280;57398;52.032;4.376;2022-11-02T16:19:17;101898.69;;;11.65;nan
70053;BME280;57398;52.032;4.376;2022-11-02T16:21:45;101901.09;;;11.60;nan
70053;BME280;57398;52.032;4.376;2022-11-02T16:24:13;101903.47;;;11.68;nan
70053;BME280;57398;52.032;4.376;2022-11-02T16:26:41;101897.47;;;11.67;nan
70053;BME280;57398;52.032;4.376;2022-11-02T16:29:10;101897.47;;;11.67;nan
70053;BME280;57398;52.032;4.376;2022-11-02T16:34:14;101898.50;;;11.73;nan
70053;BME280;57398;52.032;4.376;2022-11-02T16:36:47;101886.66;;;11.77;nan
70053;BME280;57398;52.032;4.376;2022-11-02T16:39:16;101887.47;;;11.71;nan
70053;BME280;57398;52.032;4.376;2022-11-02T16:41:48;101890.69;;;11.66;nan
70053;BME280;57398;52.032;4.376;2022-11-02T16:44:20;101886.66;;;11.77;nan
70053;BME280;57398;52.032;4.376;2022-11-02T16:46:52;101895.28;;;11.71;nan
70053;BME280;57398;52.032;4.376;2022-11-02T16:49:23;101895.88;;;11.66;nan
70053;BME280;57398;52.032;4.376;2022-11-02T16:51:53;101896.66;;;11.60;nan
70053;BME280;57398;52.032;4.376;2022-11-02T16:54:31;101901.09;;;11.60;nan
70053;BME280;57398;52.032;4.376;2022-11-02T16:57:06;101898.06;;;11.69;nan
70053;BME280;57398;52.032;4.376;2022-11-02T16:59:48;101887.66;;;11.69;nan
70053;BME280;57398;52.032;4.376;2022-11-02T17:02:17;101891.69;;;11.79;nan
70053;BME280;57398;52.032;4.376;2022-11-02T17:04:46;101890.69;;;11.73;nan
70053;BME280;57398;52.032;4.376;2022-11-02T17:07:19;101882.03;;;11.66;nan
70053;BME280;57398;52.032;4.376;2022-11-02T17:09:51;101873.84;;;11.69;nan
70053;BME280;57398;52.032;4.376;2022-11-02T17:12:22;101885.47;;;11.73;nan
70053;BME280;57398;52.032;4.376;2022-11-02T17:14:54;101879.06;;;11.76;nan
70053;BME280;57398;52.032;4.376;2022-11-02T17:20:14;101864.25;;;11.69;nan
70053;BME280;57398;52.032;4.376;2022-11-02T17:22:58;101867.44;;;11.71;nan
70053;BME280;57398;52.032;4.376;2022-11-02T17:25:27;101866.25;;;11.67;nan
70053;BME280;57398;52.032;4.376;2022-11-02T17:27:56;101863.84;;;11.72;nan
70053;BME280;57398;52.032;4.376;2022-11-02T17:30:44;101860.25;;;11.67;nan
70053;BME280;57398;52.032;4.376;2022-11-02T17:33:23;101856.25;;;11.64;nan
70053;BME280;57398;52.032;4.376;2022-11-02T17:35:53;101854.84;;;11.75;nan
70053;BME280;57398;52.032;4.376;2022-11-02T17:38:25;101860.03;;;11.82;nan
70053;BME280;57398;52.032;4.376;2022-11-02T17:40:53;101858.28;;;11.89;nan
70053;BME280;57398;52.032;4.376;2022-11-02T17:43:22;101859.06;;;11.89;nan
70053;BME280;57398;52.032;4.376;2022-11-02T17:45:53;101853.03;;;11.82;nan
70053;BME280;57398;52.032;4.376;2022-11-02T17:48:22;101849.41;;;11.83;nan
70053;BME280;57398;52.032;4.376;2022-11-02T17:50:51;101847.22;;;11.80;nan
70053;BME280;57398;52.032;4.376;2022-11-02T17:55:48;101842.41;;;11.77;nan
70053;BME280;57398;52.032;4.376;2022-11-02T17:58:16;101835.81;;;11.81;nan
70053;BME280;57398;52.032;4.376;2022-11-02T18:00:44;101825.81;;;11.78;nan
70053;BME280;57398;52.032;4.376;2022-11-02T18:03:13;101835.19;;;11.86;nan
70053;BME280;57398;52.032;4.376;2022-11-02T18:05:42;101824.78;;;11.86;nan
70053;BME280;57398;52.032;4.376;2022-11-02T18:08:14;101828.63;;;11.90;nan
70053;BME280;57398;52.032;4.376;2022-11-02T18:10:43;101825.81;;;11.85;nan
70053;BME280;57398;52.032;4.376;2022-11-02T18:13:13;101798.59;;;11.87;nan
70053;BME280;57398;52.032;4.376;2022-11-02T18:15:42;101821.81;;;11.89;nan
70053;BME280;57398;52.032;4.376;2022-11-02T18:18:09;101797.94;;;11.85;nan
70053;BME280;57398;52.032;4.376;2022-11-02T18:23:13;101812.00;;;11.84;nan
70053;BME280;57398;52.032;4.376;2022-11-02T18:25:41;101795.16;;;11.80;nan
70053;BME280;57398;52.032;4.376;2022-11-02T18:28:09;101799.19;;;11.89;nan
70053;BME280;57398;52.032;4.376;2022-11-02T18:30:40;101779.72;;;11.85;nan
70053;BME280;57398;52.032;4.376;2022-11-02T18:33:09;101776.34;;;11.91;nan
70053;BME280;57398;52.032;4.376;2022-11-02T18:35:39;101770.13;;;11.86;nan
70053;BME280;57398;52.032;4.376;2022-11-02T18:38:07;101764.72;;;11.81;nan
70053;BME280;57398;52.032;4.376;2022-11-02T18:40:35;101772.53;;;11.81;nan
70053;BME280;57398;52.032;4.376;2022-11-02T18:43:02;101757.09;;;11.79;nan
70053;BME280;57398;52.032;4.376;2022-11-02T18:45:30;101749.09;;;11.81;nan
70053;BME280;57398;52.032;4.376;2022-11-02T18:47:59;101752.91;;;11.78;nan
70053;BME280;57398;52.032;4.376;2022-11-02T18:50:27;101743.69;;;11.82;nan
70053;BME280;57398;52.032;4.376;2022-11-02T18:52:55;101743.47;;;11.84;nan
70053;BME280;57398;52.032;4.376;2022-11-02T18:55:23;101740.50;;;11.87;nan
70053;BME280;57398;52.032;4.376;2022-11-02T19:00:18;101726.47;;;11.81;nan
70053;BME280;57398;52.032;4.376;2022-11-02T19:02:46;101727.69;;;11.72;nan
70053;BME280;57398;52.032;4.376;2022-11-02T19:05:15;101726.50;;;11.68;nan
70053;BME280;57398;52.032;4.376;2022-11-02T19:08:00;101732.13;;;11.58;nan
70053;BME280;57398;52.032;4.376;2022-11-02T19:10:46;101730.91;;;11.67;nan
70053;BME280;57398;52.032;4.376;2022-11-02T19:13:13;101717.50;;;11.64;nan
70053;BME280;57398;52.032;4.376;2022-11-02T19:15:41;101719.50;;;11.68;nan
70053;BME280;57398;52.032;4.376;2022-11-02T19:18:09;101726.09;;;11.71;nan
70053;BME280;57398;52.032;4.376;2022-11-02T19:20:38;101714.31;;;11.62;nan
70053;BME280;57398;52.032;4.376;2022-11-02T19:23:06;101709.72;;;11.64;nan
70053;BME280;57398;52.032;4.376;2022-11-02T19:25:35;101705.47;;;11.69;nan
70053;BME280;57398;52.032;4.376;2022-11-02T19:28:03;101701.69;;;11.65;nan
70053;BME280;57398;52.032;4.376;2022-11-02T19:30:31;101695.50;;;11.60;nan
70053;BME280;57398;52.032;4.376;2022-11-02T19:32:58;101695.88;;;11.63;nan
70053;BME280;57398;52.032;4.376;2022-11-02T19:35:26;101699.09;;;11.59;nan
70053;BME280;57398;52.032;4.376;2022-11-02T19:37:56;101682.50;;;11.60;nan
70053;BME280;57398;52.032;4.376;2022-11-02T19:40:24;101685.28;;;11.58;nan
70053;BME280;57398;52.032;4.376;2022-11-02T19:42:52;101678.06;;;11.60;nan
70053;BME280;57398;52.032;4.376;2022-11-02T19:45:19;101674.06;;;11.64;nan
70053;BME280;57398;52.032;4.376;2022-11-02T19:47:47;101679.66;;;11.61;nan
70053;BME280;57398;52.032;4.376;2022-11-02T19:50:15;101666.47;;;11.63;nan
70053;BME280;57398;52.032;4.376;2022-11-02T19:52:43;101660.03;;;11.65;nan
70053;BME280;57398;52.032;4.376;2022-11-02T19:55:13;101659.44;;;11.70;nan
70053;BME280;57398;52.032;4.376;2022-11-02T19:57:40;101666.84;;;11.66;nan
70053;BME280;57398;52.032;4.376;2022-11-02T20:00:09;101653.84;;;11.66;nan
70053;BME280;57398;52.032;4.376;2022-11-02T20:02:37;101665.44;;;11.70;nan
70053;BME280;57398;52.032;4.376;2022-11-02T20:07:33;101659.03;;;11.73;nan
70053;BME280;57398;52.032;4.376;2022-11-02T20:10:01;101662.00;;;11.77;nan
70053;BME280;57398;52.032;4.376;2022-11-02T20:12:31;101656.44;;;11.73;nan
70053;BME280;57398;52.032;4.376;2022-11-02T20:14:59;101657.22;;;11.73;nan
70053;BME280;57398;52.032;4.376;2022-11-02T20:17:26;101648.03;;;11.71;nan
70053;BME280;57398;52.032;4.376;2022-11-02T20:20:04;101652.44;;;11.70;nan
70053;BME280;57398;52.032;4.376;2022-11-02T20:25:00;101651.63;;;11.63;nan
70053;BME280;57398;52.032;4.376;2022-11-02T20:32:24;101651.03;;;11.61;nan
70053;BME280;57398;52.032;4.376;2022-11-02T20:34:52;101640.22;;;11.64;nan
70053;BME280;57398;52.032;4.376;2022-11-02T20:37:19;101647.25;;;11.64;nan
70053;BME280;57398;52.032;4.376;2022-11-02T20:39:47;101644.84;;;11.62;nan
70053;BME280;57398;52.032;4.376;2022-11-02T20:42:15;101646.03;;;11.66;nan
70053;BME280;57398;52.032;4.376;2022-11-02T20:44:44;101633.41;;;11.70;nan
70053;BME280;57398;52.032;4.376;2022-11-02T20:47:14;101622.63;;;11.66;nan
70053;BME280;57398;52.032;4.376;2022-11-02T20:49:42;101629.59;;;11.66;nan
70053;BME280;57398;52.032;4.376;2022-11-02T20:52:16;101625.00;;;11.68;nan
70053;BME280;57398;52.032;4.376;2022-11-02T20:54:44;101615.19;;;11.63;nan
70053;BME280;57398;52.032;4.376;2022-11-02T20:57:12;101621.78;;;11.66;nan
70053;BME280;57398;52.032;4.376;2022-11-02T20:59:39;101619.00;;;11.67;nan
70053;BME280;57398;52.032;4.376;2022-11-02T21:02:10;101611.59;;;11.71;nan
70053;BME280;57398;52.032;4.376;2022-11-02T21:04:37;101611.38;;;11.66;nan
70053;BME280;57398;52.032;4.376;2022-11-02T21:07:05;101616.81;;;11.64;nan
70053;BME280;57398;52.032;4.376;2022-11-02T21:09:33;101609.38;;;11.68;nan
70053;BME280;57398;52.032;4.376;2022-11-02T21:12:00;101611.59;;;11.71;nan
70053;BME280;57398;52.032;4.376;2022-11-02T21:14:46;101609.41;;;11.61;nan
70053;BME280;57398;52.032;4.376;2022-11-02T21:17:15;101609.41;;;11.61;nan
70053;BME280;57398;52.032;4.376;2022-11-02T21:19:43;101607.41;;;11.57;nan
70053;BME280;57398;52.032;4.376;2022-11-02T21:24:39;101585.97;;;11.61;nan
70053;BME280;57398;52.032;4.376;2022-11-02T21:27:06;101600.22;;;11.59;nan
70053;BME280;57398;52.032;4.376;2022-11-02T21:29:34;101593.84;;;11.55;nan
70053;BME280;57398;52.032;4.376;2022-11-02T21:32:02;101592.78;;;11.62;nan
70053;BME280;57398;52.032;4.376;2022-11-02T21:34:31;101590.00;;;11.64;nan
70053;BME280;57398;52.032;4.376;2022-11-02T21:36:59;101591.19;;;11.61;nan
70053;BME280;57398;52.032;4.376;2022-11-02T21:39:28;101587.19;;;11.59;nan
70053;BME280;57398;52.032;4.376;2022-11-02T21:41:56;101581.41;;;11.57;nan
70053;BME280;57398;52.032;4.376;2022-11-02T21:44:23;101585.00;;;11.56;nan
70053;BME280;57398;52.032;4.376;2022-11-02T21:46:51;101576.19;;;11.57;nan
70053;BME280;57398;52.032;4.376;2022-11-02T21:51:48;101558.38;;;11.60;nan
70053;BME280;57398;52.032;4.376;2022-11-02T21:54:15;101563.78;;;11.59;nan
70053;BME280;57398;52.032;4.376;2022-11-02T21:59:11;101556.19;;;11.57;nan
70053;BME280;57398;52.032;4.376;2022-11-02T22:01:39;101553.97;;;11.61;nan
70053;BME280;57398;52.032;4.376;2022-11-02T22:04:19;101538.75;;;11.64;nan
70053;BME280;57398;52.032;4.376;2022-11-02T22:06:52;101544.16;;;11.63;nan
70053;BME280;57398;52.032;4.376;2022-11-02T22:09:20;101562.38;;;11.63;nan
70053;BME280;57398;52.032;4.376;2022-11-02T22:11:48;101552.75;;;11.63;nan
70053;BME280;57398;52.032;4.376;2022-11-02T22:14:36;101546.41;;;11.52;nan
70053;BME280;57398;52.032;4.376;2022-11-02T22:17:04;101544.41;;;11.55;nan
70053;BME280;57398;52.032;4.376;2022-11-02T22:19:42;101537.00;;;11.51;nan
70053;BME280;57398;52.032;4.376;2022-11-02T22:22:11;101534.81;;;11.48;nan
70053;BME280;57398;52.032;4.376;2022-11-02T22:24:39;101531.19;;;11.49;nan
70053;BME280;57398;52.032;4.376;2022-11-02T22:27:10;101517.56;;;11.54;nan
70053;BME280;57398;52.032;4.376;2022-11-02T22:29:38;101509.75;;;11.54;nan
70053;BME280;57398;52.032;4.376;2022-11-02T22:32:05;101502.78;;;11.55;nan
70053;BME280;57398;52.032;4.376;2022-11-02T22:34:33;101509.97;;;11.52;nan
70053;BME280;57398;52.032;4.376;2022-11-02T22:37:01;101508.78;;;11.48;nan
70053;BME280;57398;52.032;4.376;2022-11-02T22:39:43;101506.63;;;11.45;nan
70053;BME280;57398;52.032;4.376;2022-11-02T22:42:11;101498.97;;;11.50;nan
70053;BME280;57398;52.032;4.376;2022-11-02T22:44:39;101481.97;;;11.48;nan
70053;BME280;57398;52.032;4.376;2022-11-02T22:47:06;101477.19;;;11.45;nan
70053;BME280;57398;52.032;4.376;2022-11-02T22:49:34;101469.38;;;11.45;nan
70053;BME280;57398;52.032;4.376;2022-11-02T22:59:26;101470.19;;;11.45;nan
70053;BME280;57398;52.032;4.376;2022-11-02T23:01:53;101457.59;;;11.42;nan
70053;BME280;57398;52.032;4.376;2022-11-02T23:04:21;101460.78;;;11.44;nan
70053;BME280;57398;52.032;4.376;2022-11-02T23:06:48;101462.00;;;11.42;nan
70053;BME280;57398;52.032;4.376;2022-11-02T23:09:16;101469.59;;;11.43;nan
70053;BME280;57398;52.032;4.376;2022-11-02T23:11:44;101466.41;;;11.41;nan
70053;BME280;57398;52.032;4.376;2022-11-02T23:14:13;101465.38;;;11.42;nan
70053;BME280;57398;52.032;4.376;2022-11-02T23:16:44;101462.78;;;11.42;nan
70053;BME280;57398;52.032;4.376;2022-11-02T23:19:13;101454.81;;;11.37;nan
70053;BME280;57398;52.032;4.376;2022-11-02T23:24:36;101451.41;;;11.43;nan
70053;BME280;57398;52.032;4.376;2022-11-02T23:27:22;101447.59;;;11.39;nan
70053;BME280;57398;52.032;4.376;2022-11-02T23:32:36;101460.44;;;11.34;nan
70053;BME280;57398;52.032;4.376;2022-11-02T23:35:04;101452.03;;;11.32;nan
70053;BME280;57398;52.032;4.376;2022-11-02T23:37:59;101440.66;;;11.26;nan
70053;BME280;57398;52.032;4.376;2022-11-02T23:40:27;101425.66;;;11.28;nan
70053;BME280;57398;52.032;4.376;2022-11-02T23:42:55;101429.22;;;11.34;nan
70053;BME280;57398;52.032;4.376;2022-11-02T23:45:24;101417.84;;;11.28;nan
70053;BME280;57398;52.032;4.376;2022-11-02T23:47:52;101419.66;;;11.28;nan
70053;BME280;57398;52.032;4.376;2022-11-02T23:50:30;101420.44;;;11.28;nan
70053;BME280;57398;52.032;4.376;2022-11-02T23:53:17;101420.06;;;11.25;nan
70053;BME280;57398;52.032;4.376;2022-11-02T23:56:03;101408.47;;;11.27;nan
70053;BME280;57398;52.032;4.376;2022-11-02T23:58:50;101397.19;;;11.33;nan
